Terminal Aerodrome Forecast
Issued by NWS Wilmington, OH

Current Version | Previous Version | Graphics & Text | Print | Product List | Glossary On
Versions: 1 2 3 4 5 6 7 8 9 10 11 12 13 14 15 16 17 18 19 20 21 22 23
000
FTUS41 KILN 291400 AAA
TAFCMH
TAF AMD
KCMH 291404Z 2914/3012 35004KT P6SM SCT025 BKN040
     FM291600 29008KT P6SM BKN040
     FM300100 24004KT P6SM SCT040=

USA.gov is the U.S. government's official web portal to all federal, state and local government web resources and services.